Time;durP1;ratioP1;P1;durP2;ratioP2;P2;SDS_P1;SDS_P2;PMS_P1;PMS_P2;Temp;Humidity;BMP_temperature;BMP_pressure;BME280_temperature;BME280_humidity;BME280_pressure;Samples;Min_cycle;Max_cycle;Signal;HPM_P1;HPM_P2
2023/10/13 00:00:36;;;;;;;7.77;5.83;;;;;;;11.65;73.34;97493.94;4987114;28;20592;-69
2023/10/13 00:03:05;;;;;;;12.23;6.57;;;;;;;11.57;73.44;97491.69;4987274;28;20200;-68
2023/10/13 00:05:34;;;;;;;10.90;6.27;;;;;;;11.48;73.89;97492.94;4985863;28;20323;-69
2023/10/13 00:08:02;;;;;;;11.33;6.40;;;;;;;11.43;74.27;97484.50;4987111;28;20194;-68
2023/10/13 00:10:30;;;;;;;6.40;5.00;;;;;;;11.33;74.69;97479.78;4985945;28;20198;-69
2023/10/13 00:15:57;;;;;;;6.93;5.00;;;;;;;11.52;74.94;97485.03;4987070;28;20756;-69
2023/10/13 00:18:33;;;;;;;6.97;4.60;;;;;;;11.48;75.02;97485.16;4989104;28;20196;-69
2023/10/13 00:21:09;;;;;;;7.50;5.20;;;;;;;11.46;75.11;97478.31;4990978;28;20281;-70
2023/10/13 00:23:36;;;;;;;10.87;5.60;;;;;;;11.54;74.65;97475.44;4989412;28;20194;-70
2023/10/13 00:26:03;;;;;;;8.73;4.97;;;;;;;11.53;74.94;97484.09;4990705;28;20189;-68
2023/10/13 00:28:43;;;;;;;9.03;5.30;;;;;;;11.62;74.09;97483.72;4973289;28;20192;-70
2023/10/13 00:31:10;;;;;;;8.93;4.57;;;;;;;11.53;74.85;97479.78;4989455;28;20185;-72
2023/10/13 00:33:40;;;;;;;8.63;5.13;;;;;;;11.51;75.20;97475.53;4973370;28;20237;-75
2023/10/13 00:36:16;;;;;;;8.47;5.10;;;;;;;11.66;74.58;97478.38;4989305;28;20192;-70
2023/10/13 00:38:48;;;;;;;9.43;5.00;;;;;;;11.50;73.99;97464.31;4990539;28;20294;-71
2023/10/13 00:41:17;;;;;;;9.47;5.27;;;;;;;11.70;73.88;97471.31;4990453;28;20191;-70
2023/10/13 00:44:03;;;;;;;8.50;4.97;;;;;;;11.75;72.64;97475.38;4988911;28;20180;-70
2023/10/13 00:46:34;;;;;;;8.23;5.30;;;;;;;11.80;72.44;97475.19;4990443;28;20220;-69
2023/10/13 00:49:06;;;;;;;8.67;5.73;;;;;;;11.77;72.16;97462.31;4989109;28;20226;-70
2023/10/13 00:51:40;;;;;;;8.47;4.83;;;;;;;11.66;71.71;97460.22;4990296;28;20203;-74
2023/10/13 00:54:11;;;;;;;7.67;4.30;;;;;;;11.41;72.90;97470.75;4973158;28;20195;-71
2023/10/13 00:56:57;;;;;;;8.03;4.87;;;;;;;11.41;72.91;97470.75;4988575;28;20236;-71
2023/10/13 00:59:25;;;;;;;9.30;4.87;;;;;;;11.28;73.25;97458.38;4989009;28;20187;-70
2023/10/13 01:01:55;;;;;;;7.73;5.03;;;;;;;11.31;72.85;97453.88;4990218;28;20192;-70
2023/10/13 01:04:27;;;;;;;8.40;4.60;;;;;;;11.17;73.10;97456.22;4988561;28;20733;-71
2023/10/13 01:06:54;;;;;;;8.47;4.77;;;;;;;11.18;73.21;97455.31;4989817;28;20196;-76
2023/10/13 01:09:24;;;;;;;12.67;4.97;;;;;;;11.13;73.28;97459.84;4988685;28;20196;-71
2023/10/13 01:11:52;;;;;;;11.40;4.90;;;;;;;11.13;73.38;97452.06;4989849;28;20193;-70
2023/10/13 01:14:21;;;;;;;9.90;4.53;;;;;;;11.09;73.20;97455.69;4989773;28;20192;-70
2023/10/13 01:16:52;;;;;;;11.50;4.97;;;;;;;10.95;72.82;97429.50;4988501;28;20185;-69
2023/10/13 01:19:24;;;;;;;7.60;5.20;;;;;;;11.30;72.09;97457.41;4989780;28;20222;-71
2023/10/13 01:21:57;;;;;;;10.57;4.80;;;;;;;11.26;72.44;97444.63;4988527;28;20189;-70
2023/10/13 01:24:25;;;;;;;7.67;5.27;;;;;;;11.33;71.86;97449.47;4989411;28;20292;-71
2023/10/13 01:26:53;;;;;;;8.27;4.87;;;;;;;11.28;71.53;97451.44;4988349;28;20217;-73
2023/10/13 01:29:26;;;;;;;9.37;4.67;;;;;;;11.25;71.81;97438.59;4987423;28;20208;-70
2023/10/13 01:31:53;;;;;;;10.37;5.00;;;;;;;11.41;71.50;97450.03;4989538;28;20189;-70
2023/10/13 01:34:23;;;;;;;8.70;4.43;;;;;;;10.90;71.29;97369.25;4988286;28;20989;-70
2023/10/13 01:36:53;;;;;;;7.97;5.33;;;;;;;11.27;71.76;97447.13;4989624;28;20214;-70
2023/10/13 01:39:28;;;;;;;9.77;6.10;;;;;;;11.29;71.92;97439.31;4989713;28;20574;-70
2023/10/13 01:41:56;;;;;;;14.47;7.53;;;;;;;11.10;72.69;97446.16;4989193;28;20189;-70
2023/10/13 01:44:30;;;;;;;14.17;7.17;;;;;;;11.07;73.43;97449.72;4989108;28;20223;-70
2023/10/13 01:47:07;;;;;;;13.03;7.87;;;;;;;11.30;72.13;97441.84;4989289;28;20188;-70
2023/10/13 01:49:47;;;;;;;12.90;7.77;;;;;;;11.26;71.94;97448.06;4989365;28;20195;-69
2023/10/13 01:52:17;;;;;;;21.67;8.73;;;;;;;11.15;71.93;97447.66;4971725;28;20206;-74
2023/10/13 01:54:51;;;;;;;13.03;7.33;;;;;;;10.73;73.43;97444.22;4971546;28;20334;-70
2023/10/13 01:57:18;;;;;;;10.93;6.70;;;;;;;10.58;74.23;97439.66;4987836;28;20191;-69
2023/10/13 01:59:49;;;;;;;12.60;7.30;;;;;;;10.59;74.36;97439.59;4987762;28;20242;-68
2023/10/13 02:02:29;;;;;;;14.17;6.97;;;;;;;10.36;75.52;97441.41;4987966;28;20191;-68
2023/10/13 02:05:00;;;;;;;9.70;6.00;;;;;;;10.11;77.20;97438.91;4987518;28;20744;-68
2023/10/13 02:07:34;;;;;;;11.30;6.33;;;;;;;10.02;78.14;97440.94;4989261;28;20188;-70
2023/10/13 02:10:06;;;;;;;19.53;7.20;;;;;;;10.27;77.72;97437.41;4987381;28;20278;-68
2023/10/13 02:12:37;;;;;;;9.03;5.90;;;;;;;10.26;77.68;97437.47;4988679;28;20199;-73
2023/10/13 02:15:04;;;;;;;9.17;5.33;;;;;;;10.21;78.51;97440.22;4971481;28;20192;-68
2023/10/13 02:17:41;;;;;;;7.07;5.37;;;;;;;10.43;77.36;97429.88;4988815;28;20192;-80
2023/10/13 02:20:15;;;;;;;8.20;5.37;;;;;;;10.21;78.62;97434.22;4993991;28;20198;-69
2023/10/13 02:22:51;;;;;;;7.77;5.30;;;;;;;10.40;77.49;97433.47;5007880;28;20198;-69
2023/10/13 02:25:35;;;;;;;11.60;5.20;;;;;;;10.46;77.25;97432.38;5008152;28;20230;-71
2023/10/13 02:28:08;;;;;;;7.47;5.33;;;;;;;10.45;77.62;97426.34;5006664;28;20194;-78
2023/10/13 02:30:44;;;;;;;10.67;4.47;;;;;;;10.51;77.33;97423.50;5007897;28;20569;-72
2023/10/13 02:33:12;;;;;;;9.00;5.60;;;;;;;10.45;77.49;97413.41;5006911;28;20257;-78
2023/10/13 02:35:50;;;;;;;10.20;5.07;;;;;;;10.53;76.95;97410.53;5006472;28;20220;-79
2023/10/13 02:38:26;;;;;;;8.57;5.40;;;;;;;10.55;76.76;97419.06;5007798;28;20223;-69
2023/10/13 02:40:55;;;;;;;10.33;5.23;;;;;;;10.38;76.86;97411.97;5006532;28;20191;-70
2023/10/13 02:43:22;;;;;;;11.03;4.50;;;;;;;10.53;76.44;97405.34;5007656;28;20198;-68
2023/10/13 02:45:58;;;;;;;7.40;4.97;;;;;;;10.54;76.63;97392.31;5006578;28;20211;-69
2023/10/13 02:48:30;;;;;;;6.80;4.77;;;;;;;10.42;77.15;97413.53;5007664;28;20202;-69
2023/10/13 02:51:01;;;;;;;7.60;4.60;;;;;;;10.54;77.08;97409.59;5006384;28;20214;-69
2023/10/13 02:53:29;;;;;;;8.00;4.80;;;;;;;10.56;77.09;97400.88;5007530;28;20201;-68
2023/10/13 02:56:14;;;;;;;7.37;4.70;;;;;;;10.36;77.72;97402.56;4989909;28;20675;-70
2023/10/13 02:58:53;;;;;;;8.77;4.10;;;;;;;10.32;77.60;97401.84;4989719;28;20196;-78
2023/10/13 03:01:21;;;;;;;6.90;4.77;;;;;;;10.21;78.93;97413.50;5005855;28;20203;-76
2023/10/13 03:03:53;;;;;;;6.37;4.20;;;;;;;10.00;79.24;97398.75;5007402;28;20671;-69
2023/10/13 03:06:47;;;;;;;5.70;4.23;;;;;;;10.06;78.78;97414.03;5005743;28;20587;-70
2023/10/13 03:09:21;;;;;;;9.13;4.90;;;;;;;10.09;78.74;97413.94;5005976;28;20705;-68
2023/10/13 03:11:50;;;;;;;7.33;4.53;;;;;;;10.08;78.51;97412.25;5006173;28;20593;-70
2023/10/13 03:14:32;;;;;;;13.17;5.13;;;;;;;10.09;78.28;97407.03;5006985;28;20677;-69
2023/10/13 03:17:06;;;;;;;8.63;4.67;;;;;;;10.20;78.14;97402.28;4994594;28;20199;-68
2023/10/13 03:19:34;;;;;;;7.60;5.10;;;;;;;10.39;77.36;97403.28;4986315;28;20250;-68
2023/10/13 03:22:12;;;;;;;6.93;5.13;;;;;;;10.52;77.19;97404.50;4987313;28;20195;-70
2023/10/13 03:24:46;;;;;;;8.60;5.00;;;;;;;10.60;76.79;97401.59;5013386;28;20216;-81
2023/10/13 03:27:23;;;;;;;6.00;4.20;;;;;;;10.69;76.47;97396.06;5003863;28;20671;-69
2023/10/13 03:30:00;;;;;;;6.87;4.67;;;;;;;10.48;76.93;97402.09;4989506;28;20199;-70
2023/10/13 03:32:30;;;;;;;8.00;4.83;;;;;;;10.48;77.26;97400.34;4998739;28;20207;-69
2023/10/13 03:37:38;;;;;;;7.13;5.40;;;;;;;10.48;76.97;97386.53;4995870;28;20617;-69
2023/10/13 03:45:48;;;;;;;8.23;5.17;;;;;;;10.56;77.21;97400.03;4999409;28;20258;-69
2023/10/13 03:51:01;;;;;;;9.70;5.77;;;;;;;10.54;76.82;97402.69;4997734;28;20268;-70
2023/10/13 03:53:52;;;;;;;11.13;5.40;;;;;;;10.72;75.48;97395.06;4996550;28;20189;-70
2023/10/13 03:56:28;;;;;;;8.20;5.23;;;;;;;10.92;74.86;97395.94;5009121;28;20359;-69
2023/10/13 03:59:05;;;;;;;8.93;5.70;;;;;;;11.03;73.85;97390.31;5009293;28;20199;-69
2023/10/13 04:17:46;;;;;;;21.37;9.03;;;;;;;10.78;72.96;97405.19;5010108;28;20184;-74
2023/10/13 04:20:19;;;;;;;16.60;9.10;;;;;;;10.55;74.14;97403.53;5009986;28;20187;-70
2023/10/13 04:38:59;;;;;;;14.60;7.33;;;;;;;10.53;74.17;97400.16;5009914;28;20191;-71
2023/10/13 04:41:42;;;;;;;13.13;6.93;;;;;;;10.64;74.30;97400.56;5010031;28;20269;-70
2023/10/13 04:51:59;;;;;;;11.67;6.87;;;;;;;10.42;76.49;97408.34;5009481;28;20193;-76
2023/10/13 04:55:17;;;;;;;11.00;6.03;;;;;;;10.21;77.12;97405.75;5008590;28;21098;-75
2023/10/13 04:57:34;;;;;;;11.63;6.40;;;;;;;10.34;77.43;97406.97;5000452;28;20339;-69
2023/10/13 05:47:01;;;;;;;9.40;5.40;;;;;;;12.26;70.44;97447.09;4995997;28;20225;-82
2023/10/13 05:50:05;;;;;;;9.37;5.17;;;;;;;12.44;70.61;97470.53;4987275;28;20279;-72
2023/10/13 06:28:40;;;;;;;7.63;5.50;;;;;;;12.63;70.29;97460.97;4986564;28;20214;-71
2023/10/13 06:31:06;;;;;;;11.63;5.57;;;;;;;14.49;64.64;97489.59;4987997;28;20537;-75
2023/10/13 06:33:34;;;;;;;8.77;5.47;;;;;;;14.65;64.68;97490.44;4970259;28;20191;-73
2023/10/13 06:36:03;;;;;;;8.60;5.27;;;;;;;14.63;64.33;97491.50;4988233;28;20220;-78
2023/10/13 06:38:36;;;;;;;11.73;6.37;;;;;;;14.55;64.13;97486.66;5007596;28;20670;-86
2023/10/13 06:41:07;;;;;;;10.50;4.60;;;;;;;14.69;64.51;97486.75;5005370;28;20198;-83
2023/10/13 06:43:40;;;;;;;7.53;4.90;;;;;;;14.92;64.21;97501.13;5005831;28;20671;-81
2023/10/13 06:46:14;;;;;;;5.70;4.33;;;;;;;14.95;64.41;97500.13;5006907;28;20257;-77
2023/10/13 06:48:42;;;;;;;6.50;4.93;;;;;;;15.03;63.89;97471.84;5022127;28;20182;-74
2023/10/13 06:51:21;;;;;;;7.43;4.90;;;;;;;15.10;64.15;97470.59;5006875;28;20195;-74
2023/10/13 06:53:51;;;;;;;10.33;4.80;;;;;;;15.13;63.96;97466.03;5007189;28;20192;-77
2023/10/13 06:56:28;;;;;;;6.70;4.50;;;;;;;15.27;63.37;97465.25;5006353;28;20289;-72
2023/10/13 06:58:59;;;;;;;7.07;4.57;;;;;;;15.46;63.05;97477.16;5006534;28;20541;-71
2023/10/13 07:01:27;;;;;;;15.30;5.40;;;;;;;15.76;62.66;97489.34;5006557;28;20754;-76
2023/10/13 07:04:00;;;;;;;9.97;5.60;;;;;;;15.96;61.95;97484.63;5006778;28;20688;-73
2023/10/13 07:06:31;;;;;;;17.53;6.63;;;;;;;16.14;61.46;97491.34;5006161;28;20230;-70
2023/10/13 07:09:03;;;;;;;10.43;5.60;;;;;;;16.36;60.60;97484.81;5006627;28;20230;-72
2023/10/13 07:11:34;;;;;;;9.80;5.63;;;;;;;16.67;60.48;97490.66;5004471;28;20282;-73
2023/10/13 07:14:10;;;;;;;13.13;5.37;;;;;;;16.68;59.88;97489.75;4969026;28;20206;-77
2023/10/13 07:16:59;;;;;;;15.67;6.07;;;;;;;16.75;59.64;97477.97;4985775;28;20219;-79
2023/10/13 07:19:29;;;;;;;15.00;6.13;;;;;;;16.96;58.53;97496.72;4986872;28;20629;-75
2023/10/13 07:22:18;;;;;;;24.87;6.50;;;;;;;17.01;57.77;97494.63;4986293;28;20284;-76
2023/10/13 07:24:50;;;;;;;34.20;10.93;;;;;;;17.08;57.28;97482.84;4986076;28;20192;-73
2023/10/13 07:27:23;;;;;;;28.50;7.10;;;;;;;17.31;57.27;97495.25;4968255;28;20323;-74
2023/10/13 07:30:14;;;;;;;19.60;7.13;;;;;;;17.49;56.89;97488.84;4984685;28;20293;-72
2023/10/13 07:32:51;;;;;;;15.07;5.03;;;;;;;17.67;56.24;97497.25;4985976;28;20577;-77
2023/10/13 07:39:44;;;;;;;15.00;6.20;;;;;;;17.93;55.04;97488.47;4985650;28;20188;-71
2023/10/13 07:43:08;;;;;;;12.00;5.27;;;;;;;18.14;54.27;97483.53;4985644;28;20196;-69
2023/10/13 07:46:31;;;;;;;13.17;7.20;;;;;;;18.31;53.26;97485.84;4983560;28;20252;-73
2023/10/13 07:49:11;;;;;;;11.87;5.27;;;;;;;18.35;53.77;97492.56;4985966;28;20204;-70
2023/10/13 07:51:44;;;;;;;11.03;4.57;;;;;;;18.63;54.57;97481.84;4984549;28;20202;-72
2023/10/13 07:54:21;;;;;;;11.97;5.27;;;;;;;18.84;53.32;97479.47;4985635;28;20298;-70
2023/10/13 07:56:48;;;;;;;10.50;5.17;;;;;;;19.03;53.56;97478.03;4947500;28;20243;-71
2023/10/13 07:59:15;;;;;;;10.63;4.63;;;;;;;19.07;52.39;97469.00;4947479;28;20219;-72
2023/10/13 08:01:43;;;;;;;10.47;5.23;;;;;;;19.07;51.99;97476.03;4946210;29;20188;-74
2023/10/13 08:04:16;;;;;;;10.43;4.37;;;;;;;19.03;52.26;97475.41;4947370;28;20195;-70
2023/10/13 08:06:45;;;;;;;15.23;6.47;;;;;;;19.22;52.83;97469.66;4946029;29;20294;-70
2023/10/13 08:09:40;;;;;;;12.93;5.37;;;;;;;19.35;52.73;97473.94;4946033;29;20588;-70
2023/10/13 08:12:11;;;;;;;9.57;4.70;;;;;;;19.33;51.87;97475.81;4947250;29;20247;-77
2023/10/13 08:14:40;;;;;;;9.77;5.13;;;;;;;19.33;51.03;97475.81;4946064;29;20196;-72
2023/10/13 08:17:09;;;;;;;14.43;6.60;;;;;;;19.53;50.43;97463.84;4947194;28;20204;-71
2023/10/13 08:19:39;;;;;;;10.17;4.40;;;;;;;19.54;50.81;97480.47;4946555;28;20201;-75
2023/10/13 08:27:34;;;;;;;15.47;5.30;;;;;;;19.28;49.52;97385.19;4946876;28;20868;-70
2023/10/13 08:33:18;;;;;;;13.47;5.87;;;;;;;20.08;50.89;97471.00;4963628;28;20196;-69
2023/10/13 08:35:54;;;;;;;10.43;5.50;;;;;;;20.28;49.79;97468.56;4947286;28;20246;-76
2023/10/13 08:38:28;;;;;;;14.20;5.63;;;;;;;20.33;49.33;97468.19;4952856;28;20243;-73
2023/10/13 08:43:52;;;;;;;7.97;4.47;;;;;;;20.49;48.05;97471.31;4950509;28;20235;-73
2023/10/13 08:46:30;;;;;;;12.30;6.40;;;;;;;20.62;47.31;97458.03;4932513;29;20228;-75
2023/10/13 08:49:18;;;;;;;10.83;5.53;;;;;;;20.74;49.18;97462.31;4950596;28;20188;-71
2023/10/13 08:51:49;;;;;;;7.63;4.87;;;;;;;20.75;47.18;97456.91;4950411;28;20248;-77
2023/10/13 08:54:33;;;;;;;13.13;3.37;;;;;;;20.86;45.03;97477.13;4949181;29;20205;-75
2023/10/13 08:57:32;;;;;;;6.07;3.87;;;;;;;20.99;44.95;97460.22;4988906;28;20291;-72
2023/10/13 09:00:27;;;;;;;8.30;3.50;;;;;;;20.96;43.57;97459.63;4989064;28;20188;-71
2023/10/13 09:02:59;;;;;;;7.00;3.30;;;;;;;21.15;43.90;97464.25;4989048;28;20198;-71
2023/10/13 09:06:00;;;;;;;8.63;3.60;;;;;;;21.14;43.92;97445.00;4987425;28;20667;-74
2023/10/13 09:09:03;;;;;;;4.27;3.07;;;;;;;21.27;43.53;97448.31;5003523;28;20191;-78
2023/10/13 09:11:48;;;;;;;6.07;2.80;;;;;;;21.26;43.92;97449.28;4988061;28;20672;-70
2023/10/13 09:14:37;;;;;;;10.13;3.80;;;;;;;21.39;43.89;97457.00;4987490;28;20281;-72
2023/10/13 09:17:12;;;;;;;7.13;3.03;;;;;;;21.39;43.34;97451.75;4988985;28;20201;-70
2023/10/13 09:19:55;;;;;;;4.10;3.47;;;;;;;21.50;43.60;97449.88;4989403;28;20195;-72
2023/10/13 09:22:27;;;;;;;12.27;4.20;;;;;;;21.64;42.40;97449.56;4988670;28;20200;-76
2023/10/13 09:24:58;;;;;;;6.50;3.50;;;;;;;21.74;42.68;97452.28;4988829;28;20220;-71
2023/10/13 09:27:27;;;;;;;6.13;3.47;;;;;;;21.72;43.36;97446.31;4986911;28;20250;-70
2023/10/13 09:30:18;;;;;;;6.17;2.97;;;;;;;21.82;42.59;97458.59;4988393;28;20626;-71
2023/10/13 09:32:45;;;;;;;6.23;3.10;;;;;;;22.14;41.30;97461.16;4988236;28;20197;-71
2023/10/13 09:35:23;;;;;;;4.60;3.03;;;;;;;22.15;42.16;97447.00;4986519;28;20285;-72
2023/10/13 09:37:51;;;;;;;8.50;4.90;;;;;;;22.23;41.52;97438.44;4988538;28;20192;-71
2023/10/13 09:43:08;;;;;;;4.83;3.23;;;;;;;22.23;41.11;97455.09;4988520;28;20663;-71
2023/10/13 09:48:26;;;;;;;5.73;3.10;;;;;;;22.61;40.27;97444.72;4988143;28;20198;-72
2023/10/13 09:50:57;;;;;;;7.60;3.43;;;;;;;22.65;40.82;97440.84;4987897;28;20583;-74
2023/10/13 09:53:25;;;;;;;6.07;3.70;;;;;;;22.87;40.14;97444.22;4990319;28;20195;-83
2023/10/13 09:56:19;;;;;;;12.93;5.10;;;;;;;23.05;41.05;97434.66;4987821;28;20555;-80
2023/10/13 09:58:57;;;;;;;10.67;4.70;;;;;;;23.01;40.50;97425.34;4996308;28;20273;-80
2023/10/13 10:01:37;;;;;;;8.97;4.50;;;;;;;23.20;40.33;97423.56;4988100;28;20198;-81
2023/10/13 10:04:17;;;;;;;11.30;4.90;;;;;;;23.25;39.81;97423.13;4986606;28;20203;-78
2023/10/13 10:06:52;;;;;;;9.20;3.87;;;;;;;23.40;39.62;97416.47;4986287;28;20250;-83
2023/10/13 10:09:22;;;;;;;11.67;4.23;;;;;;;23.51;39.55;97413.72;4987860;28;20266;-76
2023/10/13 10:12:20;;;;;;;7.37;3.90;;;;;;;23.66;38.96;97400.88;4986555;28;20210;-70
2023/10/13 10:15:13;;;;;;;9.77;4.23;;;;;;;23.66;38.63;97396.41;4988060;28;20282;-81
2023/10/13 10:17:44;;;;;;;7.47;4.60;;;;;;;23.84;39.10;97397.38;4987491;28;20714;-79
2023/10/13 10:20:15;;;;;;;7.50;3.43;;;;;;;23.92;37.95;97402.78;4985671;28;20231;-84
2023/10/13 10:22:48;;;;;;;5.23;3.23;;;;;;;24.05;38.39;97394.56;4987020;28;20628;-74
2023/10/13 10:25:25;;;;;;;6.60;3.67;;;;;;;24.15;37.92;97376.81;4987380;28;20272;-75
2023/10/13 10:27:59;;;;;;;6.97;2.80;;;;;;;24.28;37.13;97389.72;4987362;28;20564;-72
2023/10/13 10:30:27;;;;;;;4.67;2.60;;;;;;;24.09;37.07;97382.69;4987486;28;20222;-76
2023/10/13 10:32:59;;;;;;;6.13;3.00;;;;;;;23.92;36.74;97386.06;4987057;28;20680;-75
2023/10/13 10:35:32;;;;;;;3.47;2.80;;;;;;;24.07;37.13;97384.66;4986065;28;20218;-79
2023/10/13 10:38:39;;;;;;;5.60;3.10;;;;;;;24.19;36.82;97386.94;5001779;28;20191;-80
2023/10/13 10:41:06;;;;;;;6.47;3.07;;;;;;;24.49;35.62;97396.44;4987122;28;20186;-77
2023/10/13 10:43:42;;;;;;;3.50;2.90;;;;;;;24.53;36.26;97386.38;4986990;28;20281;-81
2023/10/13 10:46:18;;;;;;;4.53;2.90;;;;;;;24.74;35.39;97394.94;4985562;28;20196;-72
2023/10/13 10:48:45;;;;;;;4.70;3.17;;;;;;;24.79;35.18;97369.66;4987007;28;20280;-81
2023/10/13 10:51:21;;;;;;;4.30;2.77;;;;;;;24.77;35.19;97376.91;4987591;28;20185;-76
2023/10/13 10:53:51;;;;;;;8.37;2.97;;;;;;;24.82;34.93;97374.66;4987386;28;20863;-82
2023/10/13 10:56:24;;;;;;;8.27;3.50;;;;;;;24.94;35.51;97376.09;4985535;28;20733;-80
2023/10/13 10:58:57;;;;;;;7.30;2.80;;;;;;;25.00;34.40;97362.25;4986811;28;20189;-76
2023/10/13 11:01:33;;;;;;;3.20;2.77;;;;;;;25.02;35.11;97367.38;4985502;28;20202;-81
2023/10/13 11:04:14;;;;;;;9.30;4.27;;;;;;;25.14;34.88;97370.66;4986478;28;20662;-81
2023/10/13 11:06:48;;;;;;;6.00;3.40;;;;;;;24.92;34.94;97348.06;4985567;28;20240;-84
2023/10/13 11:11:56;;;;;;;5.27;2.80;;;;;;;24.76;35.54;97369.13;4986713;28;20899;-82
2023/10/13 11:14:29;;;;;;;12.20;6.30;;;;;;;24.89;34.58;97359.81;4985409;28;20226;-76
2023/10/13 11:17:03;;;;;;;7.83;3.83;;;;;;;25.04;35.43;97358.31;4986783;28;20202;-81
2023/10/13 11:19:39;;;;;;;6.13;3.43;;;;;;;24.96;35.26;97355.59;4986762;28;20695;-81
2023/10/13 11:22:32;;;;;;;5.43;2.50;;;;;;;25.00;34.48;97369.34;4971067;28;20254;-84
2023/10/13 11:25:02;;;;;;;5.40;2.47;;;;;;;24.88;34.93;97363.47;4986551;28;20205;-84
2023/10/13 11:27:55;;;;;;;5.30;2.83;;;;;;;24.84;35.11;97364.75;4987010;28;20666;-82
2023/10/13 11:30:40;;;;;;;3.83;2.53;;;;;;;24.97;35.14;97364.38;4987158;28;20577;-79
2023/10/13 11:33:10;;;;;;;7.10;3.47;;;;;;;25.10;34.50;97356.84;4985216;28;20195;-74
2023/10/13 11:35:55;;;;;;;5.23;2.90;;;;;;;25.07;34.35;97362.47;4969151;28;20687;-76
2023/10/13 11:39:17;;;;;;;4.83;2.80;;;;;;;24.78;35.01;97353.91;4986351;28;20186;-73
2023/10/13 11:41:22;;;;;;;5.27;2.40;;;;;;;24.79;34.54;97374.94;4985834;28;20234;-77
2023/10/13 11:43:57;;;;;;;5.50;3.63;;;;;;;24.80;34.82;97373.13;4986633;28;20187;-74
2023/10/13 11:47:32;;;;;;;5.60;2.70;;;;;;;24.93;34.65;97365.66;4986155;28;20273;-73
2023/10/13 11:51:45;;;;;;;3.17;1.77;;;;;;;25.05;32.58;97369.75;4986334;28;20244;-74
2023/10/13 11:54:17;;;;;;;4.93;1.80;;;;;;;25.08;31.97;97358.03;4986878;28;20207;-80
2023/10/13 11:56:46;;;;;;;4.83;1.53;;;;;;;25.24;31.91;97377.56;4986770;28;20231;-82
2023/10/13 11:59:17;;;;;;;2.57;1.90;;;;;;;25.18;32.03;97346.34;4986355;28;20191;-79
2023/10/13 12:04:51;;;;;;;5.83;1.40;;;;;;;25.51;31.55;97368.69;4986471;28;20195;-74
2023/10/13 12:10:06;;;;;;;4.17;2.10;;;;;;;25.75;31.54;97361.72;4985310;28;20210;-79
2023/10/13 12:12:41;;;;;;;3.10;1.77;;;;;;;25.96;31.32;97358.69;4986257;28;20203;-77
2023/10/13 12:15:09;;;;;;;4.80;1.70;;;;;;;26.03;31.18;97358.91;4989451;28;20686;-73
2023/10/13 12:17:39;;;;;;;3.10;1.73;;;;;;;26.02;31.46;97351.91;4972982;28;20199;-74
2023/10/13 12:20:10;;;;;;;4.80;1.90;;;;;;;26.12;31.14;97360.63;4989880;28;20281;-80
2023/10/13 12:22:54;;;;;;;2.87;1.70;;;;;;;26.19;31.31;97359.03;4990380;28;20201;-74
2023/10/13 12:25:25;;;;;;;3.77;1.80;;;;;;;26.07;31.96;97361.09;4990039;28;20203;-73
2023/10/13 12:28:12;;;;;;;3.80;1.70;;;;;;;25.88;32.13;97365.78;4989763;28;20227;-71
2023/10/13 12:30:48;;;;;;;5.20;2.20;;;;;;;25.75;33.01;97361.72;4988420;28;20203;-71
2023/10/13 12:33:24;;;;;;;5.17;2.33;;;;;;;25.85;33.02;97361.63;4988356;28;20205;-75
2023/10/13 12:52:31;;;;;;;3.23;2.00;;;;;;;25.66;33.49;97362.66;4990632;28;20195;-72
2023/10/13 12:55:06;;;;;;;4.77;2.13;;;;;;;25.54;33.52;97357.75;4990833;28;20223;-76
2023/10/13 12:57:34;;;;;;;2.93;1.90;;;;;;;25.55;34.01;97360.28;4958395;28;20283;-72
2023/10/13 13:00:16;;;;;;;2.50;1.77;;;;;;;25.41;34.48;97344.88;4989774;28;20242;-80
2023/10/13 13:02:44;;;;;;;3.33;1.93;;;;;;;25.56;33.99;97361.91;4988628;28;20282;-73
2023/10/13 13:05:12;;;;;;;4.67;2.27;;;;;;;25.65;34.41;97368.13;4956353;28;20660;-76
2023/10/13 13:07:47;;;;;;;2.27;2.00;;;;;;;25.75;34.15;97366.19;4996727;28;20226;-76
2023/10/13 13:10:17;;;;;;;4.53;2.40;;;;;;;25.73;33.35;97357.56;5009405;28;20237;-72
2023/10/13 13:12:44;;;;;;;3.53;2.00;;;;;;;25.77;33.61;97351.78;5008717;28;20202;-72
2023/10/13 13:15:12;;;;;;;3.40;2.10;;;;;;;25.82;33.52;97344.19;4993689;28;20199;-76
2023/10/13 13:17:39;;;;;;;4.77;2.30;;;;;;;25.76;33.01;97339.50;4989094;28;20257;-76
2023/10/13 13:20:11;;;;;;;3.57;2.60;;;;;;;25.82;33.58;97349.47;4989038;28;20223;-73
2023/10/13 13:22:38;;;;;;;4.97;2.40;;;;;;;25.80;33.07;97358.63;4989123;28;20191;-83
2023/10/13 13:25:08;;;;;;;3.13;2.13;;;;;;;25.72;33.53;97356.72;4986332;28;20231;-75
2023/10/13 13:27:36;;;;;;;3.87;2.43;;;;;;;25.78;33.43;97352.63;4989011;28;20269;-73
2023/10/13 13:30:12;;;;;;;2.63;1.77;;;;;;;25.71;33.84;97362.19;4988616;28;20286;-80
2023/10/13 13:32:45;;;;;;;3.57;2.40;;;;;;;25.77;33.61;97365.06;4988459;28;20293;-78
2023/10/13 13:35:18;;;;;;;5.80;2.47;;;;;;;25.68;34.14;97365.13;4987377;28;20191;-73
2023/10/13 13:37:45;;;;;;;4.20;2.50;;;;;;;25.66;33.43;97353.84;4988498;28;20195;-76
2023/10/13 13:40:17;;;;;;;4.87;2.20;;;;;;;25.58;33.94;97349.34;4988785;28;20211;-74
2023/10/13 13:42:45;;;;;;;6.30;2.27;;;;;;;25.61;34.20;97351.69;4989020;28;20242;-80
2023/10/13 13:45:41;;;;;;;6.43;2.30;;;;;;;25.58;34.38;97353.78;4987707;28;20192;-77
2023/10/13 13:48:07;;;;;;;2.87;1.80;;;;;;;25.69;34.68;97357.06;4987552;28;20576;-75
2023/10/13 13:50:41;;;;;;;2.93;2.00;;;;;;;25.69;34.16;97354.41;4986893;28;20191;-78
2023/10/13 13:53:48;;;;;;;4.07;1.93;;;;;;;25.60;34.53;97357.13;4986871;28;20804;-80
2023/10/13 13:56:30;;;;;;;6.03;2.50;;;;;;;25.67;34.92;97348.41;4986429;28;20257;-75
2023/10/13 13:59:07;;;;;;;3.03;1.90;;;;;;;25.78;34.53;97350.78;4987926;28;20284;-79
2023/10/13 14:01:37;;;;;;;5.33;2.23;;;;;;;25.66;34.48;97341.44;4954641;28;20210;-80
2023/10/13 14:04:06;;;;;;;5.07;2.37;;;;;;;25.61;34.28;97346.38;4989962;28;20206;-83
2023/10/13 14:06:35;;;;;;;3.53;2.27;;;;;;;25.57;33.86;97347.69;5007514;28;20645;-80
2023/10/13 14:09:13;;;;;;;5.97;2.20;;;;;;;25.58;34.19;97349.34;4989667;28;20234;-83
2023/10/13 14:16:53;;;;;;;4.63;3.00;;;;;;;25.47;34.61;97341.63;5007376;28;20198;-76
2023/10/13 14:19:29;;;;;;;6.17;2.37;;;;;;;25.57;34.16;97352.16;5007498;28;20183;-77
2023/10/13 14:21:57;;;;;;;4.93;2.43;;;;;;;25.49;34.87;97355.56;5007245;28;20194;-75
2023/10/13 14:24:32;;;;;;;5.67;2.23;;;;;;;25.42;35.20;97351.88;5007547;28;20197;-81
2023/10/13 14:27:08;;;;;;;4.00;2.13;;;;;;;25.26;34.88;97340.28;5007099;28;20644;-79
2023/10/13 14:29:42;;;;;;;4.70;2.20;;;;;;;25.27;35.18;97340.09;5005923;28;20200;-78
2023/10/13 14:32:12;;;;;;;4.83;2.33;;;;;;;25.09;35.13;97304.00;5006057;28;21031;-79
2023/10/13 14:34:41;;;;;;;6.50;2.50;;;;;;;25.38;35.18;97353.13;5007311;28;20592;-83
2023/10/13 14:37:48;;;;;;;7.27;2.83;;;;;;;25.38;35.38;97350.50;5006508;28;20222;-75
2023/10/13 14:40:29;;;;;;;10.43;3.40;;;;;;;25.29;35.41;97351.41;4986590;28;20255;-77
2023/10/13 14:42:56;;;;;;;7.80;2.80;;;;;;;25.18;35.36;97351.66;4985549;28;20747;-76
2023/10/13 14:45:23;;;;;;;6.87;2.80;;;;;;;25.11;35.34;97358.53;4987323;28;20197;-79
2023/10/13 14:47:52;;;;;;;6.37;3.03;;;;;;;25.04;36.16;97360.13;4985309;28;20221;-76
2023/10/13 14:50:19;;;;;;;10.13;3.87;;;;;;;24.81;37.07;97364.22;5002490;28;20209;-74
2023/10/13 14:52:51;;;;;;;8.27;3.10;;;;;;;24.77;37.12;97370.81;4985920;28;20530;-75
2023/10/13 14:55:18;;;;;;;8.10;3.50;;;;;;;24.78;37.21;97368.00;5001984;28;20541;-81
2023/10/13 14:57:50;;;;;;;13.50;3.47;;;;;;;24.81;36.97;97365.03;4987227;28;20193;-78
2023/10/13 15:00:27;;;;;;;8.80;3.60;;;;;;;24.64;37.98;97367.63;4985476;28;20198;-72
2023/10/13 15:02:54;;;;;;;10.73;4.03;;;;;;;24.79;37.61;97367.00;4987058;28;20194;-78
2023/10/13 15:05:23;;;;;;;11.03;5.17;;;;;;;24.71;37.83;97374.03;4987223;28;20721;-78
2023/10/13 15:07:51;;;;;;;14.63;4.47;;;;;;;24.56;37.89;97359.59;4987024;28;20221;-78
2023/10/13 15:10:18;;;;;;;11.50;3.67;;;;;;;24.60;37.32;97374.22;4987087;28;20282;-76
2023/10/13 15:12:45;;;;;;;10.93;4.30;;;;;;;24.60;37.91;97367.09;4987313;28;20194;-76
2023/10/13 15:15:22;;;;;;;18.27;4.67;;;;;;;24.38;38.87;97375.44;4987136;28;20912;-75
2023/10/13 15:17:50;;;;;;;10.73;3.57;;;;;;;24.64;38.26;97372.94;4987302;28;20269;-78